Latest Weather Observations for Broome Port

IDW60801

Issued at 11:32 am WST Saturday 28 May 2016 (issued every 30 minutes, with the page automatically refreshed every 10 minutes)

About weather observations | Map of weather stations | Latest weather observations for WA | Other Formats
Station Details ID: 003102 Name: BROOME NTC AWS Lat: -18.00 Lon: 122.22 Height: 0.0 m
Data from the previous 72 hours. | See also: Recent months for locations in Western Australia
Date/Time
WST
Temp
°C
App
Temp
°C
Dew
Point
Rel
Hum
%
Delta-T
°C
Wind Press
QNH
hPa
Press
MSL
hPa
Rain
since 9 am
mm
Dir
 
Spd
km/h
Gust
km/h
Spd
kts
Gust
kts
28/11:30am - - - - - SSE 2 6 1 3 1012.4 1012.3 -
28/11:00am - - - - - SSE 2 7 1 4 1013.0 1013.0 -
28/10:30am - - - - - SE 4 9 2 5 1013.4 1013.4 -
28/10:00am - - - - - ESE 6 15 3 8 1013.8 1013.8 -
28/09:30am - - - - - SE 4 15 2 8 1014.1 1014.1 -
28/09:00am - - - - - ESE 9 17 5 9 1014.1 1014.1 -
28/08:30am - - - - - ESE 9 20 5 11 1014.0 1014.0 -
28/08:00am - - - - - S 2 13 1 7 1014.1 1014.1 -
28/07:30am - - - - - SSW 2 7 1 4 1013.9 1013.9 -
28/07:00am - - - - - SW 4 7 2 4 1013.7 1013.7 -
28/06:30am - - - - - SW 2 7 1 4 1013.6 1013.6 -
28/06:00am - - - - - W 4 9 2 5 1013.5 1013.5 -
28/05:30am - - - - - WSW 4 7 2 4 1013.2 1013.2 -
28/05:00am - - - - - W 4 7 2 4 1013.0 1013.0 -
28/04:30am - - - - - NW 2 6 1 3 1012.9 1012.8 -
28/04:00am - - - - - SSE 2 4 1 2 1012.8 1012.7 -
28/03:30am - - - - - SW 2 7 1 4 1012.7 1012.6 -
28/03:00am - - - - - SW 6 13 3 7 1012.6 1012.5 -
28/02:30am - - - - - SSW 17 20 9 11 1012.8 1012.7 -
28/02:00am - - - - - SW 19 24 10 13 1012.8 1012.7 -
28/01:30am - - - - - SW 20 26 11 14 1013.0 1013.0 -
28/01:00am - - - - - SSW 22 26 12 14 1013.0 1013.0 -
28/12:30am - - - - - SW 20 24 11 13 1013.2 1013.2 -
28/12:00am - - - - - SW 19 22 10 12 1013.2 1013.2 -
 
Date/Time
WST
Temp
°C
App
Temp
°C
Dew
Point
Rel
Hum
%
Delta-T
°C
Wind Press
QNH
hPa
Press
MSL
hPa
Rain
since 9 am
mm
Dir
 
Spd
km/h
Gust
km/h
Spd
kts
Gust
kts
27/11:30pm - - - - - SW 19 22 10 12 1013.3 1013.3 -
27/11:00pm - - - - - SW 19 20 10 11 1013.4 1013.4 -
27/10:30pm - - - - - SW 15 17 8 9 1013.3 1013.3 -
27/10:00pm - - - - - SW 15 19 8 10 1013.3 1013.3 -
27/09:30pm - - - - - SW 15 17 8 9 1013.3 1013.3 -
27/09:00pm - - - - - WSW 13 15 7 8 1013.2 1013.2 -
27/08:30pm - - - - - WSW 15 19 8 10 1013.0 1013.0 -
27/08:00pm - - - - - WSW 17 20 9 11 1013.0 1013.0 -
27/07:30pm - - - - - WSW 19 22 10 12 1012.8 1012.7 -
27/07:00pm - - - - - WSW 20 24 11 13 1012.8 1012.7 -
27/06:30pm - - - - - W 20 24 11 13 1012.5 1012.4 -
27/06:00pm - - - - - W 20 26 11 14 1012.4 1012.3 -
27/05:30pm - - - - - W 17 22 9 12 1012.3 1012.2 -
27/05:00pm - - - - - WNW 19 22 10 12 1011.9 1011.8 -
27/04:30pm - - - - - WNW 20 24 11 13 1011.6 1011.5 -
27/04:00pm - - - - - WNW 22 26 12 14 1011.5 1011.4 -
27/03:30pm - - - - - W 22 28 12 15 1011.6 1011.5 -
27/03:00pm - - - - - W 22 30 12 16 1011.7 1011.6 -
27/02:30pm - - - - - W 20 24 11 13 1011.8 1011.7 -
27/02:00pm - - - - - W 20 24 11 13 1011.9 1011.8 -
27/01:30pm - - - - - W 13 15 7 8 1012.2 1012.1 -
27/01:00pm - - - - - W 11 17 6 9 1012.5 1012.4 -
27/12:30pm - - - - - W 15 19 8 10 1012.9 1012.8 -
27/12:00pm - - - - - WSW 15 20 8 11 1013.3 1013.3 -
27/11:30am - - - - - WSW 13 17 7 9 1013.9 1013.9 -
27/11:00am - - - - - WSW 11 15 6 8 1014.2 1014.2 -
27/10:30am - - - - - SW 7 9 4 5 1014.8 1014.8 -
27/10:00am - - - - - SSW 7 11 4 6 1015.1 1015.1 -
27/09:30am - - - - - S 11 15 6 8 1015.4 1015.4 -
27/09:00am - - - - - S 13 17 7 9 1015.4 1015.4 -
27/08:30am - - - - - S 15 17 8 9 1015.3 1015.3 -
27/08:00am - - - - - S 15 19 8 10 1014.9 1014.9 -
27/07:30am - - - - - S 9 11 5 6 1014.5 1014.5 -
27/07:00am - - - - - S 7 9 4 5 1014.3 1014.3 -
27/06:30am - - - - - S 9 11 5 6 1014.1 1014.1 -
27/06:00am - - - - - S 7 9 4 5 1013.9 1013.9 -
27/05:30am - - - - - S 6 7 3 4 1013.6 1013.6 -
27/05:00am - - - - - ESE 4 6 2 3 1013.2 1013.2 -
27/04:30am - - - - - SSE 6 7 3 4 1013.2 1013.2 -
27/04:00am - - - - - SSE 7 9 4 5 1013.0 1013.0 -
27/03:30am - - - - - SSE 7 9 4 5 1012.9 1012.8 -
27/03:00am - - - - - SSW 9 11 5 6 1012.9 1012.8 -
27/02:30am - - - - - SSW 11 13 6 7 1013.2 1013.2 -
27/02:00am - - - - - SSW 13 15 7 8 1013.3 1013.3 -
27/01:30am - - - - - SW 13 15 7 8 1013.4 1013.4 -
27/01:00am - - - - - SW 19 20 10 11 1013.6 1013.6 -
27/12:30am - - - - - SW 20 22 11 12 1014.2 1014.2 -
27/12:00am - - - - - SW 20 24 11 13 1014.1 1014.1 -
 
Date/Time
WST
Temp
°C
App
Temp
°C
Dew
Point
Rel
Hum
%
Delta-T
°C
Wind Press
QNH
hPa
Press
MSL
hPa
Rain
since 9 am
mm
Dir
 
Spd
km/h
Gust
km/h
Spd
kts
Gust
kts
26/11:30pm - - - - - SW 19 22 10 12 1013.9 1013.9 -
26/11:00pm - - - - - SW 20 24 11 13 1013.8 1013.8 -
26/10:30pm - - - - - SW 22 28 12 15 1014.1 1014.1 -
26/10:00pm - - - - - SW 20 26 11 14 1014.0 1014.0 -
26/09:30pm - - - - - SW 17 22 9 12 1014.0 1014.0 -
26/09:00pm - - - - - WSW 15 17 8 9 1013.9 1013.9 -
26/08:30pm - - - - - WSW 15 17 8 9 1013.6 1013.6 -
26/08:00pm - - - - - WSW 17 19 9 10 1013.7 1013.7 -
26/07:30pm - - - - - WSW 17 22 9 12 1013.6 1013.6 -
26/07:00pm - - - - - WSW 17 20 9 11 1013.5 1013.5 -
26/06:30pm - - - - - WSW 17 20 9 11 1013.2 1013.2 -
26/06:00pm - - - - - W 17 22 9 12 1013.0 1013.0 -
26/05:30pm - - - - - WSW 17 24 9 13 1012.7 1012.6 -
26/05:00pm - - - - - WSW 15 19 8 10 1012.3 1012.2 -
26/04:30pm - - - - - W 15 20 8 11 1012.2 1012.1 -
26/04:00pm - - - - - WSW 15 22 8 12 1012.1 1012.0 -
26/03:30pm - - - - - W 15 20 8 11 1011.9 1011.8 -
26/03:00pm - - - - - W 15 19 8 10 1012.0 1011.9 -
26/02:30pm - - - - - W 15 19 8 10 1012.2 1012.1 -
26/02:00pm - - - - - W 15 20 8 11 1012.4 1012.3 -
26/01:30pm - - - - - W 17 20 9 11 1012.6 1012.5 -
26/01:00pm - - - - - W 15 20 8 11 1012.8 1012.7 -
26/12:30pm - - - - - W 15 22 8 12 1013.3 1013.3 -
26/12:00pm - - - - - WSW 15 19 8 10 1013.8 1013.8 -
26/11:30am - - - - - SW 9 13 5 7 1014.1 1014.1 -
26/11:00am - - - - - SW 11 17 6 9 1014.6 1014.6 -
26/10:30am - - - - - SSW 9 13 5 7 1014.8 1014.8 -
26/10:00am - - - - - SSW 9 13 5 7 1014.9 1014.9 -
26/09:30am - - - - - S 9 13 5 7 1015.0 1015.0 -
26/09:00am - - - - - S 9 11 5 6 1015.1 1015.1 -
26/08:30am - - - - - S 9 13 5 7 1014.9 1014.9 -
26/08:00am - - - - - SSE 9 13 5 7 1014.5 1014.5 -
26/07:30am - - - - - SE 9 15 5 8 1014.0 1014.0 -
26/07:00am - - - - - S 15 19 8 10 1013.6 1013.6 -
26/06:30am - - - - - S 15 19 8 10 1013.3 1013.3 -
26/06:00am - - - - - S 15 20 8 11 1013.2 1013.2 -
26/05:30am - - - - - SSW 13 19 7 10 1012.9 1012.8 -
26/05:00am - - - - - SSW 13 19 7 10 1012.7 1012.6 -
26/04:30am - - - - - SSW 11 17 6 9 1012.5 1012.4 -
26/04:00am - - - - - SSW 11 15 6 8 1012.4 1012.3 -
26/03:30am - - - - - SSW 7 11 4 6 1012.3 1012.2 -
26/03:00am - - - - - SSW 9 13 5 7 1012.2 1012.1 -
26/02:30am - - - - - SW 7 13 4 7 1012.3 1012.2 -
26/02:00am - - - - - SSW 9 15 5 8 1012.4 1012.3 -
26/01:30am - - - - - SSW 9 13 5 7 1012.5 1012.4 -
26/01:00am - - - - - SSW 7 13 4 7 1012.6 1012.5 -
26/12:30am - - - - - SSW 6 11 3 6 1012.8 1012.7 -
26/12:00am - - - - - SSW 7 13 4 7 1013.0 1013.0 -
 
Date/Time
WST
Temp
°C
App
Temp
°C
Dew
Point
Rel
Hum
%
Delta-T
°C
Wind Press
QNH
hPa
Press
MSL
hPa
Rain
since 9 am
mm
Dir
 
Spd
km/h
Gust
km/h
Spd
kts
Gust
kts
25/11:30pm - - - - - SW 15 19 8 10 1012.9 1012.8 -
25/11:00pm - - - - - WSW 13 15 7 8 1013.0 1013.0 -
25/10:30pm - - - - - W 9 15 5 8 1013.1 1013.1 -
25/10:00pm - - - - - W 11 17 6 9 1013.0 1013.0 -
25/09:30pm - - - - - W 13 17 7 9 1013.0 1013.0 -
25/09:00pm - - - - - W 11 15 6 8 1012.8 1012.7 -
25/08:30pm - - - - - W 11 15 6 8 1012.7 1012.6 -
25/08:00pm - - - - - W 13 15 7 8 1012.6 1012.5 -
25/07:30pm - - - - - W 9 13 5 7 1012.4 1012.3 -
25/07:00pm - - - - - W 9 15 5 8 1012.1 1012.0 -
25/06:30pm - - - - - W 11 19 6 10 1011.7 1011.6 -
25/06:00pm - - - - - WNW 15 20 8 11 1011.3 1011.2 -
25/05:30pm - - - - - W 15 20 8 11 1011.0 1010.9 -
25/05:00pm - - - - - WNW 11 19 6 10 1010.8 1010.7 -
25/04:30pm - - - - - W 11 19 6 10 1010.6 1010.5 -
25/04:00pm - - - - - W 17 22 9 12 1010.5 1010.4 -
25/03:30pm - - - - - W 13 22 7 12 1010.3 1010.2 -
25/03:00pm - - - - - W 19 20 10 11 1010.4 1010.3 -
25/02:30pm - - - - - WNW 15 19 8 10 1010.4 1010.3 -
25/02:00pm - - - - - W 13 15 7 8 1010.4 1010.3 -
25/01:30pm - - - - - W 11 15 6 8 1010.5 1010.4 -
25/01:00pm - - - - - W 9 13 5 7 1010.9 1010.8 -
25/12:30pm - - - - - W 7 9 4 5 1011.5 1011.4 -
25/12:00pm - - - - - SW 7 7 4 4 1011.9 1011.8 -

Other Formats:

Comma delimited format used in spreadsheet applications
http://www.bom.gov.au/fwo/IDW60801/IDW60801.95202.axf

JavaScript Object Notation format (JSON) in row-major order
http://www.bom.gov.au/fwo/IDW60801/IDW60801.95202.json